Janesville, Illinois
Current Conditions -  °F | °C
As of 7:53 PM on Saturday 25 Oct 2014 (Local Time) from KMTO Reporting Station
Clear Clear  
Wind Chill: 62°   Ceiling: Unl
Heat Index: 62°   Visibility: 10mi
Dew Point: 46°   Wind: 7mph
Humidity: 56%   Direction: 280°W
Pressure: 29.99"   Gusts: NA
Location:  39.37°N, 88.24°W
Report Text: KMTO 260053Z AUTO 28006KT 10SM CLR 17/08 A2999 RMK AO2 SLP154 T01670078
Loading
Personal Weather Stations






























Interactive Weather Map
Tropical Storm Tracking
New forecast layout! Learn more

10-Day Weather Forecast

Advertisements
Track Severe Weather on mobile